sensor_id;sensor_type;location;lat;lon;timestamp;P1;durP1;ratioP1;P2;durP2;ratioP2
25687;SDS011;17407;51.120;3.702;2023-05-10T11:31:17;33.55;;;25.60;;
25687;SDS011;17407;51.120;3.702;2023-05-10T11:34:36;35.13;;;26.42;;
25687;SDS011;17407;51.120;3.702;2023-05-10T11:37:59;34.72;;;24.58;;
25687;SDS011;17407;51.120;3.702;2023-05-10T11:41:22;33.83;;;25.98;;
25687;SDS011;17407;51.120;3.702;2023-05-10T11:44:46;39.55;;;27.38;;
25687;SDS011;17407;51.120;3.702;2023-05-10T11:48:03;40.83;;;27.13;;
25687;SDS011;17407;51.120;3.702;2023-05-10T11:51:23;38.60;;;26.25;;
25687;SDS011;17407;51.120;3.702;2023-05-10T11:54:50;37.08;;;25.73;;
25687;SDS011;17407;51.120;3.702;2023-05-10T11:58:08;36.60;;;25.65;;
25687;SDS011;17407;51.120;3.702;2023-05-10T12:01:31;36.92;;;25.85;;
25687;SDS011;17407;51.120;3.702;2023-05-10T12:05:14;40.80;;;26.98;;
25687;SDS011;17407;51.120;3.702;2023-05-10T12:08:32;33.45;;;24.42;;
25687;SDS011;17407;51.120;3.702;2023-05-10T12:11:55;35.63;;;24.35;;
25687;SDS011;17407;51.120;3.702;2023-05-10T12:15:19;35.47;;;24.42;;
25687;SDS011;17407;51.120;3.702;2023-05-10T12:18:39;34.15;;;23.70;;
25687;SDS011;17407;51.120;3.702;2023-05-10T12:22:04;33.10;;;23.13;;
25687;SDS011;17407;51.120;3.702;2023-05-10T12:25:21;30.27;;;22.92;;
25687;SDS011;17407;51.120;3.702;2023-05-10T12:28:40;28.50;;;20.67;;
25687;SDS011;17407;51.120;3.702;2023-05-10T12:32:03;30.65;;;21.42;;
25687;SDS011;17407;51.120;3.702;2023-05-10T12:35:21;27.23;;;20.80;;
25687;SDS011;17407;51.120;3.702;2023-05-10T12:38:45;28.30;;;20.70;;
25687;SDS011;17407;51.120;3.702;2023-05-10T12:42:08;30.50;;;20.60;;
25687;SDS011;17407;51.120;3.702;2023-05-10T12:45:31;32.10;;;20.42;;
25687;SDS011;17407;51.120;3.702;2023-05-10T16:21:02;15.30;;;5.93;;
25687;SDS011;17407;51.120;3.702;2023-05-10T16:24:25;13.85;;;5.93;;
25687;SDS011;17407;51.120;3.702;2023-05-10T16:27:48;15.95;;;6.75;;
25687;SDS011;17407;51.120;3.702;2023-05-10T16:31:11;15.48;;;5.22;;
25687;SDS011;17407;51.120;3.702;2023-05-10T16:34:35;15.70;;;6.55;;
25687;SDS011;17407;51.120;3.702;2023-05-10T16:37:58;17.73;;;6.90;;
25687;SDS011;17407;51.120;3.702;2023-05-10T16:41:17;13.25;;;5.65;;
25687;SDS011;17407;51.120;3.702;2023-05-10T16:44:40;22.35;;;7.20;;
25687;SDS011;17407;51.120;3.702;2023-05-10T16:48:03;19.85;;;7.38;;
25687;SDS011;17407;51.120;3.702;2023-05-10T16:51:26;12.15;;;5.30;;
25687;SDS011;17407;51.120;3.702;2023-05-10T16:54:45;18.65;;;6.10;;
25687;SDS011;17407;51.120;3.702;2023-05-10T16:58:08;14.90;;;6.68;;
25687;SDS011;17407;51.120;3.702;2023-05-10T17:01:32;18.17;;;6.97;;
25687;SDS011;17407;51.120;3.702;2023-05-10T17:04:50;15.40;;;5.93;;
25687;SDS011;17407;51.120;3.702;2023-05-10T17:08:14;15.63;;;7.43;;
25687;SDS011;17407;51.120;3.702;2023-05-10T17:51:59;22.02;;;8.32;;
25687;SDS011;17407;51.120;3.702;2023-05-10T17:55:23;23.08;;;8.57;;
25687;SDS011;17407;51.120;3.702;2023-05-10T17:58:47;18.70;;;8.38;;
25687;SDS011;17407;51.120;3.702;2023-05-10T18:02:09;22.20;;;9.13;;
25687;SDS011;17407;51.120;3.702;2023-05-10T18:05:34;18.92;;;9.20;;
25687;SDS011;17407;51.120;3.702;2023-05-10T18:08:51;16.45;;;7.30;;
25687;SDS011;17407;51.120;3.702;2023-05-10T18:12:14;19.38;;;8.30;;
25687;SDS011;17407;51.120;3.702;2023-05-10T18:15:38;16.80;;;8.18;;
25687;SDS011;17407;51.120;3.702;2023-05-10T18:19:01;22.67;;;9.02;;
25687;SDS011;17407;51.120;3.702;2023-05-10T18:22:24;16.80;;;7.55;;
25687;SDS011;17407;51.120;3.702;2023-05-10T18:25:47;18.27;;;8.45;;
25687;SDS011;17407;51.120;3.702;2023-05-10T18:29:06;20.17;;;7.90;;
25687;SDS011;17407;51.120;3.702;2023-05-10T18:32:29;25.88;;;8.68;;
25687;SDS011;17407;51.120;3.702;2023-05-10T18:35:52;17.73;;;8.20;;
25687;SDS011;17407;51.120;3.702;2023-05-10T18:39:15;20.45;;;7.47;;
25687;SDS011;17407;51.120;3.702;2023-05-10T18:42:39;17.73;;;7.60;;
25687;SDS011;17407;51.120;3.702;2023-05-10T18:46:02;18.33;;;7.32;;
25687;SDS011;17407;51.120;3.702;2023-05-10T18:49:26;20.33;;;8.00;;
25687;SDS011;17407;51.120;3.702;2023-05-10T18:52:44;14.50;;;7.20;;
25687;SDS011;17407;51.120;3.702;2023-05-10T18:56:03;19.77;;;8.02;;
